createdAt,value
2023-04-06T00:02:28.058Z,99173.31
2023-04-06T00:04:56.825Z,99167.12
2023-04-06T00:07:24.585Z,99161.77
2023-04-06T00:09:52.601Z,99157.80
2023-04-06T00:12:21.384Z,99156.96
2023-04-06T00:14:49.560Z,99160.30
2023-04-06T00:17:17.424Z,99154.58
2023-04-06T00:19:47.832Z,99150.41
2023-04-06T00:22:15.736Z,99145.89
2023-04-06T00:24:43.469Z,99146.88
2023-04-06T00:27:11.588Z,99146.65
2023-04-06T00:29:40.440Z,99143.45
2023-04-06T00:32:08.454Z,99138.55
2023-04-06T00:34:36.542Z,99140.40
2023-04-06T00:37:06.897Z,99137.05
2023-04-06T00:39:35.612Z,99137.09
2023-04-06T00:42:04.189Z,99136.91
2023-04-06T00:44:33.017Z,99138.08
2023-04-06T00:47:01.444Z,99134.77
2023-04-06T00:49:29.464Z,99134.06
2023-04-06T00:51:57.465Z,99129.29
2023-04-06T00:54:26.819Z,99129.98
2023-04-06T00:56:56.129Z,99129.33
2023-04-06T00:59:24.533Z,99129.45
2023-04-06T01:01:54.610Z,99128.23
2023-04-06T01:04:33.811Z,99128.38
2023-04-06T01:07:03.261Z,99128.30
2023-04-06T01:09:37.589Z,99124.05
2023-04-06T01:12:07.731Z,99123.89
2023-04-06T01:14:38.621Z,99122.55
2023-04-06T01:17:06.577Z,99121.88
2023-04-06T01:19:36.790Z,99115.94
2023-04-06T01:22:05.060Z,99116.11
2023-04-06T01:24:33.501Z,99113.64
2023-04-06T01:27:17.364Z,99107.70
2023-04-06T01:29:51.389Z,99103.63
2023-04-06T01:32:33.051Z,99106.77
2023-04-06T01:35:01.523Z,99108.47
2023-04-06T01:37:33.232Z,99109.16
2023-04-06T01:40:01.948Z,99104.96
2023-04-06T01:42:40.171Z,99112.45
2023-04-06T01:45:09.231Z,99109.80
2023-04-06T01:47:37.456Z,99114.53
2023-04-06T01:50:07.258Z,99115.93
2023-04-06T01:52:38.411Z,99111.75
2023-04-06T01:55:06.740Z,99108.61
2023-04-06T01:57:47.645Z,99108.90
2023-04-06T02:00:22.565Z,99108.48
2023-04-06T02:02:51.854Z,99104.39
2023-04-06T02:05:23.106Z,99101.83
2023-04-06T02:07:54.360Z,99101.54
2023-04-06T02:10:28.463Z,99095.72
2023-04-06T02:12:58.775Z,99093.85
2023-04-06T02:15:27.646Z,99089.36
2023-04-06T02:17:56.120Z,99088.71
2023-04-06T02:20:24.019Z,99081.27
2023-04-06T02:22:57.913Z,99078.15
2023-04-06T02:25:26.101Z,99081.67
2023-04-06T02:27:54.658Z,99084.27
2023-04-06T02:30:23.202Z,99079.92
2023-04-06T02:32:52.515Z,99088.45
2023-04-06T02:35:21.321Z,99082.38
2023-04-06T02:37:49.969Z,99081.13
2023-04-06T02:40:17.986Z,99081.12
2023-04-06T02:42:46.445Z,99086.09
2023-04-06T02:45:14.664Z,99083.52
2023-04-06T02:47:45.778Z,99081.16
2023-04-06T02:50:14.614Z,99074.32
2023-04-06T02:52:48.241Z,99078.17
2023-04-06T02:55:16.456Z,99080.41
2023-04-06T02:57:44.595Z,99079.96
2023-04-06T03:00:12.987Z,99081.64
2023-04-06T03:02:42.191Z,99085.31
2023-04-06T03:05:13.133Z,99087.61
2023-04-06T03:07:43.560Z,99077.23
2023-04-06T03:10:16.177Z,99088.56
2023-04-06T03:12:45.801Z,99085.21
2023-04-06T03:15:24.075Z,99085.91
2023-04-06T03:17:58.873Z,99077.77
2023-04-06T03:20:34.709Z,99073.10
2023-04-06T03:23:07.186Z,99070.45
2023-04-06T03:25:37.881Z,99074.27
2023-04-06T03:28:07.608Z,99072.83
2023-04-06T03:30:39.429Z,99074.25
2023-04-06T03:33:07.695Z,99076.71
2023-04-06T03:35:39.602Z,99076.69
2023-04-06T03:38:17.402Z,99074.68
2023-04-06T03:40:45.939Z,99072.11
2023-04-06T03:43:13.803Z,99076.05
2023-04-06T03:45:42.378Z,99072.45
2023-04-06T03:48:10.737Z,99073.23
2023-04-06T03:50:39.232Z,99070.50
2023-04-06T03:53:07.364Z,99074.48
2023-04-06T03:55:37.721Z,99073.55
2023-04-06T03:58:05.805Z,99074.95
2023-04-06T04:00:34.713Z,99080.08
2023-04-06T04:03:03.659Z,99082.28
2023-04-06T04:05:31.653Z,99086.33
2023-04-06T04:08:03.841Z,99085.45
2023-04-06T04:10:35.008Z,99084.09
2023-04-06T04:13:03.313Z,99086.20
2023-04-06T04:15:31.749Z,99087.48
2023-04-06T04:18:01.944Z,99087.66
2023-04-06T04:20:30.839Z,99084.49
2023-04-06T04:23:05.524Z,99091.61
2023-04-06T04:25:34.531Z,99094.39
2023-04-06T04:28:02.759Z,99092.73
2023-04-06T04:30:35.188Z,99096.83
2023-04-06T04:33:08.391Z,99098.84
2023-04-06T04:35:36.410Z,99100.42
2023-04-06T04:38:05.001Z,99101.23
2023-04-06T04:40:33.414Z,99103.77
2023-04-06T04:43:11.019Z,99102.17
2023-04-06T04:45:40.738Z,99101.13
2023-04-06T04:48:18.376Z,99101.07
2023-04-06T04:50:53.426Z,99102.57
2023-04-06T04:53:24.099Z,99108.45
2023-04-06T04:55:59.583Z,99105.66
2023-04-06T04:58:29.718Z,99108.42
2023-04-06T05:00:59.170Z,99111.75
2023-04-06T05:03:27.733Z,99108.48
2023-04-06T05:06:02.610Z,99101.57
2023-04-06T05:08:33.518Z,99106.48
2023-04-06T05:11:01.948Z,99105.98
2023-04-06T05:13:32.771Z,99105.75
2023-04-06T05:16:01.221Z,99103.95
2023-04-06T05:18:32.528Z,99104.48
2023-04-06T05:21:01.748Z,99106.08
2023-04-06T05:23:37.284Z,99102.95
2023-04-06T05:26:06.099Z,99104.55
2023-04-06T05:28:34.058Z,99101.95
2023-04-06T05:31:02.310Z,99102.65
2023-04-06T05:33:34.376Z,99106.28
2023-04-06T05:36:08.052Z,99107.96
2023-04-06T05:38:39.984Z,99102.30
2023-04-06T05:41:18.254Z,99101.00
2023-04-06T05:43:46.658Z,99102.16
2023-04-06T05:46:15.410Z,99106.40
2023-04-06T05:48:44.966Z,99102.70
2023-04-06T05:51:13.563Z,99102.41
2023-04-06T05:53:46.174Z,99106.08
2023-04-06T05:56:15.903Z,99107.29
2023-04-06T05:58:45.344Z,99107.64
2023-04-06T06:01:15.390Z,99102.98
2023-04-06T06:03:49.148Z,99104.91
2023-04-06T06:06:18.098Z,99109.72
2023-04-06T06:09:06.312Z,99106.09
2023-04-06T06:11:38.325Z,99111.94
2023-04-06T06:14:07.069Z,99113.75
2023-04-06T06:16:37.380Z,99118.20
2023-04-06T06:19:09.040Z,99117.76
2023-04-06T06:21:37.837Z,99113.55
2023-04-06T06:24:13.357Z,99120.70
2023-04-06T06:26:52.859Z,99116.55
2023-04-06T06:29:21.281Z,99106.39
2023-04-06T06:31:50.740Z,99106.49
2023-04-06T06:34:19.213Z,99110.26
2023-04-06T06:36:49.006Z,99110.93
2023-04-06T06:39:18.159Z,99107.08
2023-04-06T06:41:46.144Z,99109.59
2023-04-06T06:44:14.641Z,99111.55
2023-04-06T06:46:48.921Z,99108.04
2023-04-06T06:49:16.862Z,99107.23
2023-04-06T06:51:44.928Z,99108.98
2023-04-06T06:54:13.573Z,99101.55
2023-04-06T06:56:41.399Z,99104.98
2023-04-06T06:59:11.585Z,99109.61
2023-04-06T07:01:40.785Z,99109.14
2023-04-06T07:04:09.957Z,99109.05
2023-04-06T07:06:40.851Z,99107.79
2023-04-06T07:09:10.020Z,99104.14
2023-04-06T07:11:37.960Z,99109.92
2023-04-06T07:14:07.856Z,99114.56
2023-04-06T07:16:38.336Z,99119.88
2023-04-06T07:19:06.569Z,99123.27
2023-04-06T07:21:35.487Z,99118.55
2023-04-06T07:24:03.441Z,99120.73
2023-04-06T07:26:31.287Z,99120.59
2023-04-06T07:28:59.197Z,99123.85
2023-04-06T07:31:27.397Z,99122.77
2023-04-06T07:33:56.255Z,99124.27
2023-04-06T07:36:28.375Z,99120.36
2023-04-06T07:38:56.653Z,99119.41
2023-04-06T07:41:25.030Z,99115.45
2023-04-06T07:43:54.144Z,99116.23
2023-04-06T07:46:22.074Z,99116.02
2023-04-06T07:48:52.029Z,99115.65
2023-04-06T07:51:20.769Z,99116.01
2023-04-06T07:53:48.980Z,99120.40
2023-04-06T07:56:16.737Z,99124.82
2023-04-06T07:58:44.809Z,99125.52
2023-04-06T08:01:12.773Z,99126.83
2023-04-06T08:03:41.410Z,99126.64
2023-04-06T08:06:09.671Z,99123.61
2023-04-06T08:08:42.453Z,99129.58
2023-04-06T08:11:10.516Z,99130.64
2023-04-06T08:13:38.916Z,99132.23
2023-04-06T08:16:09.008Z,99130.30
2023-04-06T08:18:38.090Z,99129.86
2023-04-06T08:21:06.381Z,99131.18
2023-04-06T08:23:35.368Z,99125.19
2023-04-06T08:26:03.858Z,99127.23
2023-04-06T08:28:32.057Z,99131.73
2023-04-06T08:31:00.514Z,99127.22
2023-04-06T08:33:28.400Z,99125.23
2023-04-06T08:36:00.088Z,99125.83
2023-04-06T08:38:28.056Z,99130.32
2023-04-06T08:40:56.189Z,99131.86
2023-04-06T08:43:24.168Z,99130.52
2023-04-06T08:45:52.605Z,99131.29
2023-04-06T08:48:20.999Z,99133.36
2023-04-06T08:50:49.397Z,99132.33
2023-04-06T08:53:17.207Z,99136.05
2023-04-06T08:55:45.196Z,99134.41
2023-04-06T08:58:14.499Z,99132.61
2023-04-06T09:00:43.668Z,99130.55
2023-04-06T09:03:24.704Z,99132.83
2023-04-06T09:05:53.892Z,99135.84
2023-04-06T09:08:22.294Z,99132.42
2023-04-06T09:10:50.368Z,99132.10
2023-04-06T09:13:24.965Z,99133.89
2023-04-06T09:16:01.641Z,99137.92
2023-04-06T09:18:31.117Z,99138.51
2023-04-06T09:21:00.444Z,99135.95
2023-04-06T09:23:28.618Z,99144.06
2023-04-06T09:26:06.502Z,99145.23
2023-04-06T09:28:42.262Z,99147.91
2023-04-06T09:31:13.070Z,99155.70
2023-04-06T09:33:42.084Z,99160.46
2023-04-06T09:36:11.025Z,99159.34
2023-04-06T09:38:41.092Z,99157.68
2023-04-06T09:41:08.883Z,99164.13
2023-04-06T09:43:36.626Z,99161.69
2023-04-06T09:46:04.963Z,99163.00
2023-04-06T09:48:33.320Z,99164.08
2023-04-06T09:51:02.290Z,99161.58
2023-04-06T09:53:30.377Z,99165.42
2023-04-06T09:55:58.731Z,99169.06
2023-04-06T09:58:30.736Z,99174.16
2023-04-06T10:01:03.334Z,99183.73
2023-04-06T10:03:39.950Z,99181.83
2023-04-06T10:06:10.778Z,99184.17
2023-04-06T10:08:41.426Z,99184.45
2023-04-06T10:11:11.945Z,99187.95
2023-04-06T10:13:39.756Z,99187.27
2023-04-06T10:16:07.538Z,99187.48
2023-04-06T10:18:37.046Z,99188.34
2023-04-06T10:21:09.636Z,99193.27
2023-04-06T10:23:50.517Z,99190.28
2023-04-06T10:26:21.585Z,99186.61
2023-04-06T10:28:50.070Z,99187.42
2023-04-06T10:31:28.572Z,99190.48
2023-04-06T10:33:57.772Z,99194.37
2023-04-06T10:36:27.642Z,99196.05
2023-04-06T10:38:57.507Z,99203.92
2023-04-06T10:41:26.687Z,99202.73
2023-04-06T10:43:57.749Z,99203.26
2023-04-06T10:46:26.530Z,99207.64
2023-04-06T10:48:54.773Z,99207.17
2023-04-06T10:51:25.737Z,99213.00
2023-04-06T10:53:53.590Z,99212.11
2023-04-06T10:56:26.340Z,99213.80
2023-04-06T10:58:54.618Z,99217.41
2023-04-06T11:01:23.033Z,99216.44
2023-04-06T11:03:52.805Z,99217.22
2023-04-06T11:06:21.190Z,99219.83
2023-04-06T11:08:50.010Z,99225.69
2023-04-06T11:11:21.267Z,99224.39
2023-04-06T11:13:52.345Z,99226.77
2023-04-06T11:16:22.170Z,99229.20
2023-04-06T11:18:50.854Z,99223.56
2023-04-06T11:21:41.032Z,99232.36
2023-04-06T11:24:11.095Z,99233.96
2023-04-06T11:26:39.860Z,99236.95
2023-04-06T11:29:08.503Z,99239.47
2023-04-06T11:31:42.932Z,99241.27
2023-04-06T11:34:11.969Z,99243.86
2023-04-06T11:36:42.374Z,99244.75
2023-04-06T11:39:10.406Z,99246.24
2023-04-06T11:41:39.372Z,99246.94
2023-04-06T11:44:07.658Z,99253.20
2023-04-06T11:46:35.553Z,99255.36
2023-04-06T11:49:03.655Z,99255.27
2023-04-06T11:51:31.852Z,99256.77
2023-04-06T11:53:59.953Z,99257.98
2023-04-06T11:56:30.854Z,99256.92
2023-04-06T11:58:59.628Z,99256.04
2023-04-06T12:01:27.863Z,99257.58
2023-04-06T12:04:00.090Z,99263.35
2023-04-06T12:06:31.849Z,99263.36
2023-04-06T12:08:59.671Z,99265.65
2023-04-06T12:11:27.433Z,99264.73
2023-04-06T12:14:02.670Z,99264.09
2023-04-06T12:16:32.140Z,99265.90
2023-04-06T12:19:01.151Z,99265.14
2023-04-06T12:21:32.655Z,99262.62
2023-04-06T12:24:01.585Z,99259.80
2023-04-06T12:26:43.035Z,99256.70
2023-04-06T12:29:11.092Z,99257.04
2023-04-06T12:31:42.033Z,99254.23
2023-04-06T12:34:10.409Z,99255.27
2023-04-06T12:36:38.967Z,99254.61
2023-04-06T12:39:08.230Z,99255.97
2023-04-06T12:41:51.715Z,99256.30
2023-04-06T12:44:24.781Z,99258.52
2023-04-06T12:46:53.545Z,99251.89
2023-04-06T12:49:23.021Z,99253.02
2023-04-06T12:51:57.016Z,99255.98
2023-04-06T12:54:24.809Z,99255.70
2023-04-06T12:56:53.206Z,99252.84
2023-04-06T12:59:22.054Z,99254.23
2023-04-06T13:01:50.281Z,99253.15
2023-04-06T13:04:18.484Z,99259.04
2023-04-06T13:06:47.260Z,99255.66
2023-04-06T13:09:15.600Z,99251.90
2023-04-06T13:11:43.377Z,99254.92
2023-04-06T13:14:11.184Z,99254.66
2023-04-06T13:16:39.842Z,99248.78
2023-04-06T13:19:07.742Z,99253.91
2023-04-06T13:21:35.615Z,99258.14
2023-04-06T13:24:03.960Z,99259.68
2023-04-06T13:26:32.118Z,99259.70
2023-04-06T13:29:00.549Z,99262.48
2023-04-06T13:31:28.739Z,99260.25
2023-04-06T13:33:57.089Z,99255.21
2023-04-06T13:36:25.841Z,99263.55
2023-04-06T13:38:53.826Z,99263.50
2023-04-06T13:41:22.109Z,99266.48
2023-04-06T13:43:50.029Z,99271.03
2023-04-06T13:46:18.089Z,99269.55
2023-04-06T13:48:46.039Z,99272.98
2023-04-06T13:51:14.194Z,99271.24
2023-04-06T13:53:42.788Z,99268.20
2023-04-06T13:56:10.874Z,99265.33
2023-04-06T13:58:39.010Z,99266.23
2023-04-06T14:01:08.218Z,99268.77
2023-04-06T14:03:37.760Z,99269.80
2023-04-06T14:06:20.753Z,99268.98
2023-04-06T14:08:58.433Z,99267.75
2023-04-06T14:11:27.421Z,99265.25
2023-04-06T14:13:58.397Z,99265.42
2023-04-06T14:16:27.612Z,99263.11
2023-04-06T14:18:56.169Z,99259.52
2023-04-06T14:21:24.045Z,99263.67
2023-04-06T14:23:51.855Z,99261.95
2023-04-06T14:26:20.574Z,99262.03
2023-04-06T14:28:49.269Z,99265.53
2023-04-06T14:31:18.128Z,99263.95
2023-04-06T14:33:47.631Z,99267.86
2023-04-06T14:36:15.715Z,99265.77
2023-04-06T14:38:45.038Z,99266.30
2023-04-06T14:41:18.627Z,99270.93
2023-04-06T14:43:47.428Z,99268.51
2023-04-06T14:46:16.824Z,99270.40
2023-04-06T14:48:46.108Z,99273.93
2023-04-06T14:51:13.953Z,99273.08
2023-04-06T14:53:42.593Z,99275.89
2023-04-06T14:56:11.919Z,99277.11
2023-04-06T14:58:43.594Z,99280.31
2023-04-06T15:01:11.604Z,99281.66
2023-04-06T15:03:40.745Z,99281.86
2023-04-06T15:06:12.224Z,99283.23
2023-04-06T15:08:41.019Z,99281.11
2023-04-06T15:11:08.819Z,99280.41
2023-04-06T15:13:38.931Z,99282.45
2023-04-06T15:16:07.515Z,99280.31
2023-04-06T15:18:35.919Z,99281.08
2023-04-06T15:21:08.614Z,99281.34
2023-04-06T15:23:36.547Z,99284.62
2023-04-06T15:26:05.023Z,99286.11
2023-04-06T15:28:33.889Z,99288.39
2023-04-06T15:31:06.871Z,99291.89
2023-04-06T15:33:35.112Z,99298.82
2023-04-06T15:36:04.634Z,99294.35
2023-04-06T15:38:32.459Z,99295.54
2023-04-06T15:41:00.411Z,99296.36
2023-04-06T15:43:28.309Z,99295.02
2023-04-06T15:45:59.338Z,99293.19
2023-04-06T15:48:31.631Z,99298.60
2023-04-06T15:50:59.359Z,99301.04
2023-04-06T15:53:28.233Z,99304.04
2023-04-06T15:56:00.614Z,99304.76
2023-04-06T15:58:28.513Z,99307.05
2023-04-06T16:00:56.461Z,99308.31
2023-04-06T16:03:26.442Z,99305.13
2023-04-06T16:08:27.122Z,99302.28
2023-04-06T16:10:55.060Z,99301.84
2023-04-06T16:13:22.942Z,99304.73
2023-04-06T16:15:51.476Z,99309.33
2023-04-06T16:18:19.386Z,99309.56
2023-04-06T16:20:47.356Z,99311.83
2023-04-06T16:23:18.062Z,99315.67
2023-04-06T16:25:45.999Z,99320.48
2023-04-06T16:28:14.194Z,99324.91
2023-04-06T16:30:45.719Z,99328.32
2023-04-06T16:33:17.127Z,99331.21
2023-04-06T16:35:46.648Z,99335.16
2023-04-06T16:38:15.014Z,99342.08
2023-04-06T16:40:45.081Z,99344.58
2023-04-06T16:43:13.999Z,99344.32
2023-04-06T16:45:42.440Z,99349.27
2023-04-06T16:48:11.693Z,99352.66
2023-04-06T16:50:40.994Z,99355.38
2023-04-06T16:53:10.615Z,99355.80
2023-04-06T16:55:39.639Z,99360.98
2023-04-06T16:58:07.675Z,99364.30
2023-04-06T17:00:38.567Z,99368.67
2023-04-06T17:03:08.169Z,99375.27
2023-04-06T17:05:36.807Z,99377.52
2023-04-06T17:08:04.719Z,99380.73
2023-04-06T17:10:34.236Z,99382.00
2023-04-06T17:13:06.253Z,99380.44
2023-04-06T17:15:34.389Z,99384.13
2023-04-06T17:18:02.566Z,99385.33
2023-04-06T17:20:31.065Z,99385.80
2023-04-06T17:22:59.020Z,99388.38
2023-04-06T17:25:33.059Z,99390.09
2023-04-06T17:28:01.383Z,99393.59
2023-04-06T17:30:29.434Z,99391.45
2023-04-06T17:32:58.471Z,99395.77
2023-04-06T17:35:26.556Z,99402.55
2023-04-06T17:37:54.350Z,99403.51
2023-04-06T17:40:22.279Z,99403.36
2023-04-06T17:42:50.101Z,99405.05
2023-04-06T17:45:18.135Z,99400.54
2023-04-06T17:47:46.138Z,99400.63
2023-04-06T17:50:14.580Z,99403.19
2023-04-06T17:52:43.166Z,99403.31
2023-04-06T17:55:11.516Z,99404.03
2023-04-06T17:57:42.008Z,99407.27
2023-04-06T18:00:11.979Z,99410.67
2023-04-06T18:02:59.640Z,99408.30
2023-04-06T18:05:27.744Z,99413.08
2023-04-06T18:07:55.608Z,99412.48
2023-04-06T18:10:23.508Z,99418.71
2023-04-06T18:12:51.311Z,99418.88
2023-04-06T18:15:19.191Z,99423.23
2023-04-06T18:17:47.407Z,99426.69
2023-04-06T18:20:15.894Z,99430.64
2023-04-06T18:22:44.129Z,99432.23
2023-04-06T18:25:12.976Z,99436.15
2023-04-06T18:27:41.211Z,99439.70
2023-04-06T18:30:09.419Z,99441.48
2023-04-06T18:32:38.371Z,99438.90
2023-04-06T18:35:09.292Z,99442.61
2023-04-06T18:37:37.494Z,99441.71
2023-04-06T18:40:05.728Z,99442.69
2023-04-06T18:42:33.729Z,99445.09
2023-04-06T18:45:03.611Z,99447.90
2023-04-06T18:47:31.909Z,99450.64
2023-04-06T18:49:59.685Z,99453.40
2023-04-06T18:52:27.844Z,99454.91
2023-04-06T18:54:55.716Z,99453.21
2023-04-06T18:57:23.895Z,99458.04
2023-04-06T18:59:51.701Z,99454.21
2023-04-06T19:02:19.593Z,99457.77
2023-04-06T19:04:47.572Z,99463.88
2023-04-06T19:07:16.790Z,99466.59
2023-04-06T19:09:47.514Z,99470.36
2023-04-06T19:12:15.898Z,99477.86
2023-04-06T19:14:50.570Z,99481.35
2023-04-06T19:17:23.810Z,99485.87
2023-04-06T19:19:51.772Z,99491.47
2023-04-06T19:22:19.531Z,99496.52
2023-04-06T19:24:49.010Z,99493.20
2023-04-06T19:27:17.059Z,99497.05
2023-04-06T19:29:49.837Z,99498.55
2023-04-06T19:32:18.538Z,99505.36
2023-04-06T19:34:46.432Z,99515.48
2023-04-06T19:37:14.179Z,99518.86
2023-04-06T19:39:44.196Z,99523.81
2023-04-06T19:42:15.219Z,99525.97
2023-04-06T19:44:43.057Z,99530.20
2023-04-06T19:47:14.891Z,99529.10
2023-04-06T19:49:42.992Z,99533.38
2023-04-06T19:52:11.094Z,99534.28
2023-04-06T19:54:40.275Z,99533.98
2023-04-06T19:57:08.279Z,99533.08
2023-04-06T19:59:36.401Z,99533.80
2023-04-06T20:02:04.373Z,99535.89
2023-04-06T20:04:32.256Z,99534.98
2023-04-06T20:07:00.358Z,99530.58
2023-04-06T20:09:28.455Z,99526.19
2023-04-06T20:11:56.591Z,99531.08
2023-04-06T20:14:24.526Z,99536.86
2023-04-06T20:16:52.699Z,99537.71
2023-04-06T20:19:20.657Z,99536.80
2023-04-06T20:21:48.765Z,99535.05
2023-04-06T20:24:16.755Z,99538.76
2023-04-06T20:26:45.322Z,99540.92
2023-04-06T20:29:13.229Z,99548.94
2023-04-06T20:31:41.236Z,99551.58
2023-04-06T20:34:09.307Z,99551.79
2023-04-06T20:36:37.375Z,99554.73
2023-04-06T20:39:05.490Z,99559.24
2023-04-06T20:41:33.574Z,99559.98
2023-04-06T20:44:01.719Z,99563.66
2023-04-06T20:46:30.089Z,99570.08
2023-04-06T20:48:58.371Z,99571.27
2023-04-06T20:51:29.628Z,99574.50
2023-04-06T20:53:58.181Z,99578.25
2023-04-06T20:56:27.751Z,99588.40
2023-04-06T20:58:57.075Z,99590.92
2023-04-06T21:01:25.041Z,99591.73
2023-04-06T21:03:53.711Z,99586.91
2023-04-06T21:06:21.733Z,99589.37
2023-04-06T21:08:49.642Z,99590.20
2023-04-06T21:11:17.648Z,99591.77
2023-04-06T21:13:45.522Z,99595.92
2023-04-06T21:16:17.309Z,99599.34
2023-04-06T21:18:48.249Z,99600.45
2023-04-06T21:21:16.158Z,99604.90
2023-04-06T21:23:44.318Z,99612.49
2023-04-06T21:26:12.940Z,99612.73
2023-04-06T21:28:40.838Z,99619.63
2023-04-06T21:31:08.914Z,99620.73
2023-04-06T21:33:38.296Z,99627.58
2023-04-06T21:36:06.567Z,99628.67
2023-04-06T21:38:36.325Z,99632.05
2023-04-06T21:41:04.287Z,99634.58
2023-04-06T21:43:33.244Z,99633.36
2023-04-06T21:46:01.033Z,99633.90
2023-04-06T21:48:29.127Z,99643.34
2023-04-06T21:50:57.252Z,99643.26
2023-04-06T21:53:27.154Z,99646.98
2023-04-06T21:55:54.985Z,99649.96
2023-04-06T21:58:22.988Z,99655.80
2023-04-06T22:00:50.918Z,99657.40
2023-04-06T22:03:19.208Z,99657.67
2023-04-06T22:05:47.231Z,99660.30
2023-04-06T22:08:25.346Z,99666.08
2023-04-06T22:10:58.583Z,99666.88
2023-04-06T22:13:26.953Z,99666.02
2023-04-06T22:15:55.165Z,99663.50
2023-04-06T22:18:24.977Z,99665.45
2023-04-06T22:20:53.169Z,99667.57
2023-04-06T22:23:21.172Z,99665.52
2023-04-06T22:25:49.141Z,99665.52
2023-04-06T22:28:18.069Z,99666.48
2023-04-06T22:30:45.828Z,99669.04
2023-04-06T22:33:14.568Z,99670.75
2023-04-06T22:35:42.541Z,99671.62
2023-04-06T22:38:10.739Z,99674.56
2023-04-06T22:40:38.841Z,99674.70
2023-04-06T22:43:06.566Z,99677.27
2023-04-06T22:45:35.041Z,99673.00
2023-04-06T22:48:03.124Z,99674.17
2023-04-06T22:50:31.734Z,99675.29
2023-04-06T22:52:59.582Z,99673.19
2023-04-06T22:55:27.466Z,99673.06
2023-04-06T22:57:55.552Z,99679.69
2023-04-06T23:00:23.556Z,99676.16
2023-04-06T23:03:11.562Z,99680.96
2023-04-06T23:05:40.195Z,99679.36
2023-04-06T23:08:07.959Z,99680.77
2023-04-06T23:10:38.572Z,99682.27
2023-04-06T23:13:06.803Z,99686.15
2023-04-06T23:15:34.943Z,99689.02
2023-04-06T23:18:03.036Z,99688.85
2023-04-06T23:20:31.506Z,99688.29
2023-04-06T23:22:59.305Z,99689.85
2023-04-06T23:25:27.180Z,99685.86
2023-04-06T23:27:55.033Z,99687.92
2023-04-06T23:30:22.810Z,99687.49
2023-04-06T23:32:51.483Z,99694.49
2023-04-06T23:35:19.350Z,99696.35
2023-04-06T23:37:47.280Z,99699.11
2023-04-06T23:40:15.103Z,99701.50
2023-04-06T23:42:42.848Z,99702.86
2023-04-06T23:45:11.369Z,99704.92
2023-04-06T23:47:39.218Z,99708.52
2023-04-06T23:50:07.351Z,99711.06
2023-04-06T23:52:35.449Z,99708.28
2023-04-06T23:55:03.629Z,99709.86
2023-04-06T23:57:31.597Z,99711.59
